Time;durP1;ratioP1;P1;durP2;ratioP2;P2;SDS_P1;SDS_P2;PMS_P1;PMS_P2;Temp;Humidity;BMP_temperature;BMP_pressure;BME280_temperature;BME280_humidity;BME280_pressure;Samples;Min_cycle;Max_cycle;Signal;HPM_P1;HPM_P2
2022/07/01 00:01:25;;;;;;;16.02;10.23;;;18.00;99.90;;;;;;5072627;28;20043;-73
2022/07/01 00:03:50;;;;;;;14.30;10.30;;;18.00;99.90;;;;;;5072506;28;20036;-73
2022/07/01 00:06:20;;;;;;;14.20;9.95;;;18.00;99.90;;;;;;5073005;28;20036;-74
2022/07/01 00:08:47;;;;;;;18.23;10.05;;;18.00;99.90;;;;;;5076740;28;20020;-72
2022/07/01 00:11:13;;;;;;;19.70;11.65;;;18.00;99.90;;;;;;5086147;28;20065;-73
2022/07/01 00:13:39;;;;;;;18.05;10.38;;;18.00;99.90;;;;;;5095689;28;20021;-73
2022/07/01 00:16:04;;;;;;;13.57;9.75;;;17.90;99.90;;;;;;5096077;28;20384;-73
2022/07/01 00:18:30;;;;;;;17.88;10.00;;;17.80;99.90;;;;;;5096316;28;20031;-73
2022/07/01 00:20:56;;;;;;;16.70;10.23;;;17.80;99.90;;;;;;5092108;28;20166;-73
2022/07/01 00:23:22;;;;;;;16.15;9.73;;;17.90;99.90;;;;;;5092915;28;20020;-73
2022/07/01 00:25:48;;;;;;;13.60;9.55;;;17.80;99.90;;;;;;5095956;28;20043;-73
2022/07/01 00:28:13;;;;;;;20.10;10.43;;;17.70;99.90;;;;;;5096555;28;20377;-74
2022/07/01 00:30:39;;;;;;;19.95;10.13;;;17.70;99.90;;;;;;5096360;28;20114;-73
2022/07/01 00:33:05;;;;;;;14.80;9.93;;;17.70;99.90;;;;;;5096460;28;20469;-72
2022/07/01 00:35:31;;;;;;;15.50;9.95;;;17.70;99.90;;;;;;5095944;28;20032;-73
2022/07/01 00:37:57;;;;;;;16.15;9.77;;;17.70;99.90;;;;;;5096082;28;20091;-73
2022/07/01 00:40:24;;;;;;;18.30;9.38;;;17.70;99.90;;;;;;5096250;28;20480;-73
2022/07/01 00:42:50;;;;;;;15.30;10.23;;;17.70;99.90;;;;;;5094971;28;20024;-73
2022/07/01 00:45:15;;;;;;;13.95;8.77;;;17.70;99.90;;;;;;5089275;28;20044;-73
2022/07/01 00:47:42;;;;;;;13.80;9.38;;;17.70;99.90;;;;;;5096276;28;20016;-73
2022/07/01 00:50:13;;;;;;;11.77;9.20;;;17.60;99.90;;;;;;5095865;28;20036;-72
2022/07/01 00:52:40;;;;;;;16.42;9.15;;;17.60;99.90;;;;;;5095321;28;20524;-73
2022/07/01 00:55:09;;;;;;;14.93;9.07;;;17.60;99.90;;;;;;5094760;28;20459;-73
2022/07/01 00:57:37;;;;;;;12.65;8.82;;;17.60;99.90;;;;;;5095960;28;20028;-74
2022/07/01 01:00:15;;;;;;;14.43;9.32;;;17.60;99.90;;;;;;5095902;28;20103;-73
2022/07/01 01:02:41;;;;;;;14.07;9.35;;;17.50;99.90;;;;;;5094589;28;20028;-73
2022/07/01 01:05:10;;;;;;;14.52;8.10;;;17.50;99.90;;;;;;5094468;28;20496;-72
2022/07/01 01:07:36;;;;;;;29.90;10.93;;;17.50;99.90;;;;;;5095696;28;20033;-72
2022/07/01 01:10:02;;;;;;;14.60;8.88;;;17.50;99.90;;;;;;5096006;28;20149;-73
2022/07/01 01:12:29;;;;;;;11.95;8.48;;;17.50;99.90;;;;;;5095584;28;20021;-73
2022/07/01 01:14:57;;;;;;;14.18;8.75;;;17.50;99.90;;;;;;5095394;28;20058;-73
2022/07/01 01:17:23;;;;;;;15.68;9.20;;;17.50;99.90;;;;;;5094905;28;20036;-73
2022/07/01 01:19:50;;;;;;;15.57;8.80;;;17.40;99.90;;;;;;5095243;28;20047;-73
2022/07/01 01:22:16;;;;;;;16.83;8.82;;;17.50;99.90;;;;;;5095499;28;20028;-73
2022/07/01 01:24:43;;;;;;;13.48;8.55;;;17.40;99.90;;;;;;5094936;28;20020;-73
2022/07/01 01:27:09;;;;;;;11.90;7.90;;;17.40;99.90;;;;;;5095168;28;20035;-74
2022/07/01 01:29:35;;;;;;;13.23;7.43;;;17.40;99.90;;;;;;5092154;28;20029;-74
2022/07/01 01:32:02;;;;;;;23.75;8.50;;;17.40;99.90;;;;;;5094776;28;20097;-74
2022/07/01 01:34:28;;;;;;;17.67;8.77;;;17.40;99.90;;;;;;5088735;28;20020;-74
2022/07/01 01:36:54;;;;;;;14.82;8.82;;;17.40;99.90;;;;;;5088173;28;20085;-73
2022/07/01 01:39:20;;;;;;;16.80;9.25;;;17.30;99.90;;;;;;5075218;28;20029;-74
2022/07/01 01:41:46;;;;;;;17.38;8.45;;;17.30;99.90;;;;;;5080077;28;20027;-74
2022/07/01 01:44:13;;;;;;;14.98;9.35;;;17.20;99.90;;;;;;5094804;28;20035;-73
2022/07/01 01:46:38;;;;;;;15.48;9.38;;;17.20;99.90;;;;;;5094841;28;20077;-73
2022/07/01 01:49:05;;;;;;;15.15;9.05;;;17.20;99.90;;;;;;5084359;28;20020;-73
2022/07/01 01:51:31;;;;;;;16.98;9.45;;;17.20;99.90;;;;;;5088434;28;20460;-74
2022/07/01 01:53:57;;;;;;;19.02;9.55;;;17.20;99.90;;;;;;5094453;28;20075;-73
2022/07/01 01:56:25;;;;;;;13.70;8.70;;;17.20;99.90;;;;;;5093808;28;20480;-72
2022/07/01 01:58:51;;;;;;;17.40;10.07;;;17.10;99.90;;;;;;5094766;28;20064;-73
2022/07/01 02:01:18;;;;;;;19.80;9.60;;;17.10;99.90;;;;;;5094640;28;20032;-73
2022/07/01 02:03:45;;;;;;;16.25;9.27;;;17.10;99.90;;;;;;5094324;28;20357;-72
2022/07/01 02:06:11;;;;;;;17.63;9.38;;;17.00;99.90;;;;;;5092208;28;20146;-73
2022/07/01 02:08:38;;;;;;;18.88;9.35;;;16.90;99.90;;;;;;5092523;28;20493;-73
2022/07/01 02:11:04;;;;;;;13.48;9.20;;;16.90;99.90;;;;;;5094017;28;20047;-73
2022/07/01 02:13:31;;;;;;;18.90;9.40;;;17.00;99.90;;;;;;5093352;28;20081;-73
2022/07/01 02:15:57;;;;;;;14.15;9.57;;;17.00;99.90;;;;;;5094198;28;20388;-73
2022/07/01 02:18:23;;;;;;;15.63;8.98;;;16.90;99.90;;;;;;5092949;28;20383;-73
2022/07/01 02:20:49;;;;;;;17.20;9.68;;;16.90;99.90;;;;;;5094224;28;20031;-73
2022/07/01 02:23:15;;;;;;;19.98;8.75;;;16.90;99.90;;;;;;5094313;28;20016;-73
2022/07/01 02:25:41;;;;;;;20.95;10.30;;;16.90;99.90;;;;;;5094313;28;20043;-73
2022/07/01 02:28:08;;;;;;;19.00;9.65;;;16.80;99.90;;;;;;5093302;28;20032;-73
2022/07/01 02:30:37;;;;;;;15.02;9.25;;;16.80;99.90;;;;;;5093313;28;20027;-73
2022/07/01 02:33:05;;;;;;;19.90;9.75;;;16.80;99.90;;;;;;5091251;28;20024;-73
2022/07/01 02:35:36;;;;;;;18.17;9.88;;;16.80;99.90;;;;;;5094267;28;20361;-73
2022/07/01 02:38:02;;;;;;;13.77;9.15;;;16.90;99.90;;;;;;5093570;28;20055;-73
2022/07/01 02:40:28;;;;;;;15.55;8.77;;;16.80;99.90;;;;;;5094300;28;20112;-73
2022/07/01 02:42:54;;;;;;;15.48;8.45;;;16.80;99.90;;;;;;5093790;28;20091;-73
2022/07/01 02:45:20;;;;;;;16.70;9.25;;;16.80;99.90;;;;;;5092349;28;20119;-73
2022/07/01 02:47:46;;;;;;;15.32;9.02;;;16.80;99.90;;;;;;5093950;28;20401;-73
2022/07/01 02:50:13;;;;;;;15.02;8.43;;;16.70;99.90;;;;;;5094141;28;20024;-73
2022/07/01 02:52:40;;;;;;;15.95;8.55;;;16.70;99.90;;;;;;5093778;28;20392;-73
2022/07/01 02:55:09;;;;;;;15.23;9.27;;;16.70;99.90;;;;;;5093747;28;20120;-72
2022/07/01 02:57:35;;;;;;;17.58;9.27;;;16.80;99.90;;;;;;5093756;28;20031;-73
2022/07/01 03:00:01;;;;;;;16.15;9.45;;;16.70;99.90;;;;;;5093519;28;20024;-73
2022/07/01 03:02:27;;;;;;;17.17;9.18;;;16.60;99.90;;;;;;5093826;28;20427;-72
2022/07/01 03:04:53;;;;;;;17.23;9.57;;;16.60;99.90;;;;;;5093514;28;20024;-72
2022/07/01 03:07:20;;;;;;;14.20;8.70;;;16.60;99.90;;;;;;5093293;28;20031;-73
2022/07/01 03:09:46;;;;;;;15.38;8.73;;;16.70;99.90;;;;;;5093441;28;20048;-72
2022/07/01 03:12:25;;;;;;;18.17;9.63;;;16.60;99.90;;;;;;5093585;28;20064;-73
2022/07/01 03:15:04;;;;;;;18.23;9.90;;;16.70;99.90;;;;;;5089646;28;20035;-71
2022/07/01 03:17:31;;;;;;;15.70;9.20;;;16.60;99.90;;;;;;5073258;28;20484;-73
2022/07/01 03:19:58;;;;;;;18.52;9.95;;;16.50;99.90;;;;;;5075970;28;20020;-74
2022/07/01 03:22:26;;;;;;;19.42;10.65;;;16.50;99.90;;;;;;5093392;28;20027;-74
2022/07/01 03:24:52;;;;;;;16.48;10.60;;;16.50;99.90;;;;;;5092145;28;20059;-73
2022/07/01 03:27:19;;;;;;;21.67;12.50;;;16.60;99.90;;;;;;5092815;28;20676;-73
2022/07/01 03:29:45;;;;;;;21.98;12.93;;;16.60;99.90;;;;;;5091638;28;20039;-73
2022/07/01 03:32:11;;;;;;;24.58;12.82;;;16.60;99.90;;;;;;5093335;28;20070;-73
2022/07/01 03:34:38;;;;;;;25.58;14.43;;;16.60;99.90;;;;;;5093303;28;20119;-73
2022/07/01 03:37:05;;;;;;;21.88;15.25;;;16.60;99.90;;;;;;5091784;28;20031;-73
2022/07/01 03:39:31;;;;;;;23.40;14.50;;;16.60;99.90;;;;;;5093018;28;20123;-73
2022/07/01 03:41:57;;;;;;;28.95;15.55;;;16.60;99.90;;;;;;5092719;28;20524;-73
2022/07/01 03:44:23;;;;;;;26.65;17.33;;;16.60;99.90;;;;;;5092830;28;20073;-73
2022/07/01 03:46:49;;;;;;;29.00;18.17;;;16.70;99.90;;;;;;5093074;28;20145;-73
2022/07/01 03:49:14;;;;;;;27.40;16.98;;;16.70;99.90;;;;;;5092837;28;20032;-72
2022/07/01 03:51:40;;;;;;;30.33;17.38;;;16.60;99.90;;;;;;5093073;28;20028;-73
2022/07/01 03:56:50;;;;;;;30.63;18.23;;;16.60;99.90;;;;;;5092923;28;20396;-73
2022/07/01 03:59:15;;;;;;;36.20;18.33;;;16.60;99.90;;;;;;5092572;28;20032;-74
2022/07/01 04:01:41;;;;;;;26.42;17.15;;;16.60;99.90;;;;;;5093224;28;20051;-74
2022/07/01 04:04:07;;;;;;;27.40;16.40;;;16.70;99.90;;;;;;5092452;28;20028;-72
2022/07/01 04:06:33;;;;;;;24.58;16.40;;;16.70;99.90;;;;;;5092449;28;20029;-73
2022/07/01 04:08:59;;;;;;;29.67;17.65;;;16.70;99.90;;;;;;5092908;28;20024;-73
2022/07/01 04:11:25;;;;;;;24.83;16.70;;;16.80;99.90;;;;;;5092447;28;20473;-73
2022/07/01 04:13:51;;;;;;;27.08;15.98;;;16.80;99.90;;;;;;5091754;28;20020;-73
2022/07/01 04:16:20;;;;;;;28.98;15.88;;;16.90;99.90;;;;;;5092564;28;20036;-73
2022/07/01 04:18:47;;;;;;;24.73;16.02;;;16.80;99.90;;;;;;5091461;28;20493;-73
2022/07/01 04:23:57;;;;;;;27.77;17.02;;;16.90;99.90;;;;;;5092504;28;20045;-73
2022/07/01 04:26:26;;;;;;;23.60;16.08;;;16.90;99.90;;;;;;5092393;28;20036;-73
2022/07/01 04:28:52;;;;;;;24.13;16.27;;;16.90;99.90;;;;;;5092817;28;20035;-73
2022/07/01 04:31:19;;;;;;;22.40;15.20;;;16.80;99.90;;;;;;5092735;28;20473;-73
2022/07/01 04:33:45;;;;;;;24.27;15.00;;;16.90;99.90;;;;;;5092753;28;20107;-73
2022/07/01 04:36:11;;;;;;;24.00;15.30;;;16.90;99.90;;;;;;5092604;28;20031;-73
2022/07/01 04:38:37;;;;;;;30.02;15.38;;;16.90;99.90;;;;;;5092881;28;20021;-73
2022/07/01 04:43:47;;;;;;;19.00;13.60;;;17.00;99.90;;;;;;5092289;28;20047;-73
2022/07/01 04:46:12;;;;;;;25.23;14.93;;;17.00;99.90;;;;;;5091541;28;20036;-73
2022/07/01 04:48:39;;;;;;;24.98;15.82;;;16.90;99.90;;;;;;5092543;28;20024;-73
2022/07/01 04:51:05;;;;;;;28.15;15.57;;;16.90;99.90;;;;;;5092447;28;20141;-73
2022/07/01 04:53:31;;;;;;;22.92;14.27;;;17.00;99.90;;;;;;5095257;28;20053;-74
2022/07/01 04:55:57;;;;;;;28.67;15.60;;;16.90;99.90;;;;;;5095718;28;20391;-73
2022/07/01 04:58:22;;;;;;;24.45;14.02;;;16.80;99.90;;;;;;5096138;28;20034;-73
2022/07/01 05:00:48;;;;;;;26.50;14.55;;;16.90;99.90;;;;;;5086598;28;20503;-73
2022/07/01 05:03:14;;;;;;;25.25;14.85;;;16.90;99.90;;;;;;5075605;28;20427;-73
2022/07/01 05:05:40;;;;;;;26.40;13.68;;;16.80;99.90;;;;;;5075697;28;20028;-73
2022/07/01 05:08:06;;;;;;;19.38;13.80;;;16.80;99.90;;;;;;5075597;28;20032;-73
2022/07/01 05:10:32;;;;;;;26.10;14.25;;;16.90;99.90;;;;;;5075299;28;20021;-73
2022/07/01 05:12:57;;;;;;;19.67;13.93;;;16.90;99.90;;;;;;5079152;28;20536;-73
2022/07/01 05:15:23;;;;;;;24.25;14.40;;;17.00;99.90;;;;;;5095737;28;20561;-73
2022/07/01 05:23:17;;;;;;;23.15;15.00;;;17.10;99.90;;;;;;5100173;28;20069;-73
2022/07/01 05:25:42;;;;;;;22.80;14.80;;;17.00;99.90;;;;;;5095544;28;20040;-73
2022/07/01 05:28:08;;;;;;;23.55;15.75;;;17.00;99.90;;;;;;5094860;28;20040;-73
2022/07/01 05:30:33;;;;;;;27.45;16.35;;;17.00;99.90;;;;;;5095653;28;20038;-73
2022/07/01 05:32:59;;;;;;;26.02;16.00;;;17.10;99.90;;;;;;5094598;28;20035;-73
2022/07/01 05:35:25;;;;;;;21.42;14.43;;;17.10;99.90;;;;;;5094932;28;20035;-73
2022/07/01 05:37:51;;;;;;;23.20;16.25;;;17.20;99.90;;;;;;5095215;28;20024;-73
2022/07/01 05:40:16;;;;;;;21.17;13.95;;;17.10;99.90;;;;;;5095067;28;20050;-73
2022/07/01 05:42:42;;;;;;;19.42;12.88;;;17.20;99.90;;;;;;5085877;28;20032;-73
2022/07/01 05:45:08;;;;;;;20.15;13.27;;;17.20;99.90;;;;;;5094227;28;20476;-71
2022/07/01 05:47:34;;;;;;;22.83;14.93;;;17.30;99.90;;;;;;5094278;28;20028;-73
2022/07/01 05:50:00;;;;;;;20.38;14.00;;;17.40;99.90;;;;;;5113044;28;20024;-73
2022/07/01 05:52:25;;;;;;;24.02;13.70;;;17.40;99.90;;;;;;5115356;28;20622;-73
2022/07/01 05:54:51;;;;;;;21.75;13.50;;;17.40;99.90;;;;;;5114378;27;20032;-73
2022/07/01 05:57:17;;;;;;;20.23;13.27;;;17.40;99.90;;;;;;5109189;28;20027;-73
2022/07/01 05:59:42;;;;;;;23.90;13.05;;;17.30;99.90;;;;;;5093645;28;20035;-73
2022/07/01 06:02:08;;;;;;;20.30;12.55;;;17.20;99.90;;;;;;5094231;28;20019;-73
2022/07/01 06:04:34;;;;;;;18.35;13.65;;;17.20;99.90;;;;;;5094718;28;20059;-73
2022/07/01 06:06:59;;;;;;;22.15;13.63;;;17.20;99.90;;;;;;5106394;28;20051;-73
2022/07/01 06:09:25;;;;;;;18.20;12.75;;;17.20;99.90;;;;;;5104424;28;20476;-74
2022/07/01 06:11:51;;;;;;;19.73;13.20;;;17.20;99.90;;;;;;5094503;28;20028;-73
2022/07/01 06:14:17;;;;;;;21.63;13.60;;;17.30;99.90;;;;;;5084057;28;20016;-72
2022/07/01 06:16:42;;;;;;;17.15;13.35;;;17.30;99.90;;;;;;5078073;28;20513;-73
2022/07/01 06:19:08;;;;;;;18.38;14.07;;;17.30;99.90;;;;;;5094068;28;20036;-73
2022/07/01 06:21:34;;;;;;;21.23;16.58;;;17.20;99.90;;;;;;5104406;28;20060;-73
2022/07/01 06:24:00;;;;;;;21.35;15.40;;;17.10;99.90;;;;;;5114317;28;20032;-73
2022/07/01 06:26:25;;;;;;;24.30;15.48;;;17.10;99.90;;;;;;5115181;28;20116;-72
2022/07/01 06:28:51;;;;;;;26.70;16.20;;;17.10;99.90;;;;;;5114738;28;20043;-73
2022/07/01 06:31:17;;;;;;;21.90;14.95;;;17.10;99.90;;;;;;5112527;28;20430;-73
2022/07/01 06:33:43;;;;;;;21.92;14.10;;;17.10;99.90;;;;;;5108514;28;20043;-73
2022/07/01 06:36:09;;;;;;;20.13;15.52;;;17.10;99.90;;;;;;5091686;28;20032;-73
2022/07/01 06:38:34;;;;;;;20.98;14.23;;;17.00;99.90;;;;;;5092744;28;20379;-73
2022/07/01 06:43:44;;;;;;;16.30;12.43;;;17.00;99.90;;;;;;5093335;28;20062;-74
2022/07/01 06:46:10;;;;;;;19.05;10.93;;;17.10;99.90;;;;;;5093052;28;20067;-71
2022/07/01 06:48:36;;;;;;;11.05;8.52;;;17.20;99.90;;;;;;5093678;28;20366;-72
2022/07/01 06:51:02;;;;;;;12.57;7.32;;;17.30;99.90;;;;;;5092438;28;20388;-70
2022/07/01 06:53:28;;;;;;;9.32;7.30;;;17.40;99.90;;;;;;5098442;28;20461;-71
2022/07/01 06:55:54;;;;;;;10.18;5.80;;;17.50;99.90;;;;;;5114255;28;20043;-71
2022/07/01 06:58:20;;;;;;;8.60;5.05;;;17.50;99.90;;;;;;5113741;28;20015;-72
2022/07/01 07:00:46;;;;;;;8.52;4.60;;;17.70;99.90;;;;;;5103344;28;20521;-72
2022/07/01 07:03:11;;;;;;;7.43;3.55;;;17.80;99.90;;;;;;5093576;28;20016;-72
2022/07/01 07:05:37;;;;;;;12.63;3.88;;;17.90;99.90;;;;;;5093404;28;20035;-72
2022/07/01 07:08:03;;;;;;;6.47;3.63;;;18.10;99.90;;;;;;5093559;28;20028;-72
2022/07/01 07:10:29;;;;;;;7.50;3.30;;;18.00;99.90;;;;;;5086181;28;20078;-72
2022/07/01 07:12:55;;;;;;;8.00;3.25;;;18.10;99.90;;;;;;5101748;28;20098;-72
2022/07/01 07:15:21;;;;;;;7.88;3.22;;;18.30;99.90;;;;;;5113302;28;20090;-72
2022/07/01 07:17:46;;;;;;;7.35;3.13;;;18.30;99.90;;;;;;5109405;28;20150;-72
2022/07/01 07:20:12;;;;;;;6.22;3.20;;;18.30;99.90;;;;;;5093029;28;20491;-72
2022/07/01 07:22:38;;;;;;;6.97;3.50;;;18.40;99.90;;;;;;5092543;28;20031;-72
2022/07/01 07:25:04;;;;;;;5.22;3.08;;;18.30;99.90;;;;;;5092767;28;20028;-72
2022/07/01 07:27:30;;;;;;;11.45;3.45;;;18.40;99.90;;;;;;5092267;28;20060;-72
2022/07/01 07:29:55;;;;;;;7.18;3.47;;;18.40;99.90;;;;;;5093449;28;20056;-72
2022/07/01 07:32:21;;;;;;;7.03;3.72;;;18.50;99.90;;;;;;5092868;28;20032;-72
2022/07/01 07:34:47;;;;;;;6.40;3.38;;;18.60;99.90;;;;;;5092888;28;20372;-72
2022/07/01 07:37:12;;;;;;;9.40;3.22;;;18.80;99.90;;;;;;5093252;28;20094;-73
2022/07/01 07:39:38;;;;;;;7.00;3.05;;;18.80;99.90;;;;;;5092662;28;20032;-73
2022/07/01 07:42:05;;;;;;;7.78;3.60;;;19.10;99.90;;;;;;5093293;28;20031;-73
2022/07/01 07:44:31;;;;;;;7.18;3.55;;;19.20;99.90;;;;;;5090160;28;20024;-73
2022/07/01 07:46:57;;;;;;;5.45;2.70;;;19.30;99.90;;;;;;5082513;28;20070;-72
2022/07/01 07:49:23;;;;;;;7.85;3.33;;;19.50;99.90;;;;;;5071804;28;20465;-73
2022/07/01 07:51:49;;;;;;;3.53;2.47;;;19.70;99.90;;;;;;5072889;28;20431;-73
2022/07/01 07:54:15;;;;;;;6.45;1.98;;;19.80;99.90;;;;;;5085474;28;20029;-73
2022/07/01 07:56:40;;;;;;;7.32;1.88;;;19.60;99.90;;;;;;5096313;28;20368;-73
2022/07/01 07:59:06;;;;;;;3.63;1.70;;;19.50;99.90;;;;;;5112093;28;20027;-72
2022/07/01 08:01:32;;;;;;;5.60;2.10;;;19.60;99.90;;;;;;5094483;28;20404;-73
2022/07/01 08:03:58;;;;;;;3.05;1.52;;;19.70;99.90;;;;;;5092771;28;20479;-72
2022/07/01 08:06:23;;;;;;;4.35;1.50;;;19.90;99.90;;;;;;5092538;28;20493;-73
2022/07/01 08:08:49;;;;;;;4.43;1.65;;;20.00;99.90;;;;;;5092195;28;20056;-73
2022/07/01 08:11:15;;;;;;;2.42;1.38;;;20.10;99.90;;;;;;5092803;28;20051;-73
2022/07/01 08:13:40;;;;;;;3.30;1.42;;;20.20;99.90;;;;;;5092815;28;20029;-73
2022/07/01 08:16:07;;;;;;;2.85;1.60;;;20.20;99.90;;;;;;5099526;28;20102;-73
2022/07/01 08:18:32;;;;;;;4.25;1.33;;;20.30;99.90;;;;;;5078467;28;20009;-73
2022/07/01 08:20:58;;;;;;;3.20;1.38;;;20.40;99.90;;;;;;5090237;28;20032;-73
2022/07/01 08:23:23;;;;;;;4.03;1.35;;;20.50;99.90;;;;;;5092285;28;20044;-71
2022/07/01 08:25:50;;;;;;;2.15;1.27;;;20.40;99.90;;;;;;5091589;28;20040;-73
2022/07/01 08:28:16;;;;;;;2.85;1.17;;;20.40;99.90;;;;;;5094988;28;20077;-73
2022/07/01 08:30:42;;;;;;;2.15;1.20;;;20.50;99.90;;;;;;5096532;28;20024;-73
2022/07/01 08:33:08;;;;;;;3.80;1.10;;;20.60;99.90;;;;;;5096486;28;20089;-74
2022/07/01 08:35:34;;;;;;;3.90;1.38;;;20.80;99.90;;;;;;5096533;28;20024;-74
2022/07/01 08:38:00;;;;;;;1.50;0.80;;;21.00;99.90;;;;;;5108480;28;20027;-74
2022/07/01 08:40:27;;;;;;;3.33;0.90;;;21.20;99.90;;;;;;5102778;28;20412;-73
2022/07/01 08:43:00;;;;;;;4.75;0.95;;;21.30;99.90;;;;;;5096628;28;20381;-74
2022/07/01 08:45:28;;;;;;;1.75;0.95;;;21.40;99.90;;;;;;5096128;28;20089;-73
2022/07/01 08:48:00;;;;;;;3.15;1.10;;;21.40;99.90;;;;;;5095967;28;20020;-74
2022/07/01 08:50:28;;;;;;;4.28;1.17;;;21.60;99.90;;;;;;5076014;28;20601;-73
2022/07/01 08:52:54;;;;;;;2.08;1.00;;;21.70;99.90;;;;;;5074877;28;20031;-73
2022/07/01 08:55:20;;;;;;;3.55;1.10;;;21.80;99.90;;;;;;5094243;28;20392;-73
2022/07/01 08:57:47;;;;;;;3.40;1.48;;;21.90;99.90;;;;;;5096283;28;20472;-73
2022/07/01 09:00:13;;;;;;;5.53;1.40;;;21.80;99.90;;;;;;5095772;28;20032;-74
2022/07/01 09:02:59;;;;;;;3.88;1.05;;;21.90;99.90;;;;;;5096104;28;20023;-73
2022/07/01 09:05:26;;;;;;;2.40;1.02;;;22.00;99.90;;;;;;5095511;28;20020;-72
2022/07/01 09:07:57;;;;;;;2.28;0.80;;;22.00;99.90;;;;;;5095884;28;20027;-73
2022/07/01 09:10:23;;;;;;;3.58;1.10;;;22.20;99.90;;;;;;5095524;28;20111;-73
2022/07/01 09:12:49;;;;;;;1.13;0.70;;;22.10;99.90;;;;;;5109357;28;20106;-73
2022/07/01 09:15:27;;;;;;;5.50;1.00;;;22.20;99.90;;;;;;5116164;28;20043;-73
2022/07/01 09:17:54;;;;;;;2.55;0.93;;;22.20;99.90;;;;;;5111207;28;20087;-74
2022/07/01 09:20:25;;;;;;;5.40;0.82;;;22.40;99.90;;;;;;5094028;28;20027;-73
2022/07/01 09:23:06;;;;;;;2.15;0.68;;;22.60;99.90;;;;;;5094290;28;20477;-72
2022/07/01 09:25:44;;;;;;;2.60;0.68;;;22.60;99.90;;;;;;5095852;28;20040;-73
2022/07/01 09:28:13;;;;;;;4.18;0.90;;;22.70;99.90;;;;;;5095370;28;20032;-74
2022/07/01 09:30:41;;;;;;;5.03;0.75;;;22.90;99.90;;;;;;5094819;28;20024;-74
2022/07/01 09:33:09;;;;;;;4.10;0.85;;;22.80;99.90;;;;;;5095023;28;20032;-72
2022/07/01 09:35:36;;;;;;;2.97;0.70;;;22.90;99.90;;;;;;5099217;28;20024;-73
2022/07/01 09:38:05;;;;;;;2.33;0.90;;;22.80;99.90;;;;;;5106768;28;20419;-73
2022/07/01 09:40:50;;;;;;;4.15;0.73;;;22.80;99.70;;;;;;5095043;28;20016;-73
2022/07/01 09:43:17;;;;;;;4.60;0.70;;;22.80;99.90;;;;;;5095311;28;20461;-73
2022/07/01 09:45:53;;;;;;;2.30;0.60;;;22.60;98.50;;;;;;5094946;28;20032;-74
2022/07/01 09:48:19;;;;;;;2.97;0.80;;;22.30;99.20;;;;;;5093058;28;20107;-75
2022/07/01 09:50:45;;;;;;;3.20;0.90;;;22.10;99.90;;;;;;5095176;28;20111;-70
2022/07/01 09:53:12;;;;;;;2.25;0.90;;;22.20;99.90;;;;;;5094264;28;20028;-75
2022/07/01 09:55:39;;;;;;;1.40;0.55;;;22.60;99.90;;;;;;5094962;28;20086;-75
2022/07/01 09:58:05;;;;;;;4.40;0.88;;;22.90;99.90;;;;;;5094538;28;20023;-75
2022/07/01 10:00:34;;;;;;;3.15;0.82;;;22.70;99.70;;;;;;5093740;28;20035;-74
2022/07/01 10:03:01;;;;;;;4.47;0.85;;;22.50;99.00;;;;;;5094557;28;20550;-74
2022/07/01 10:05:28;;;;;;;1.60;0.85;;;22.70;99.50;;;;;;5093846;28;20039;-73
2022/07/01 10:08:22;;;;;;;1.70;1.10;;;22.70;99.90;;;;;;5098810;28;20186;-75
2022/07/01 10:11:13;;;;;;;3.15;0.90;;;23.10;99.90;;;;;;5086062;28;20085;-74
2022/07/01 10:13:41;;;;;;;3.55;0.60;;;23.00;99.60;;;;;;5094257;28;20020;-75
2022/07/01 10:16:08;;;;;;;4.70;0.95;;;23.00;99.90;;;;;;5092966;28;20055;-74
2022/07/01 10:18:34;;;;;;;3.35;0.73;;;23.30;99.90;;;;;;5094057;28;20384;-74
2022/07/01 10:21:01;;;;;;;2.90;0.70;;;23.50;99.70;;;;;;5094570;28;20088;-75
2022/07/01 10:23:45;;;;;;;3.00;0.85;;;23.50;99.70;;;;;;5093917;28;20103;-73
2022/07/01 10:26:12;;;;;;;3.83;0.93;;;23.50;99.90;;;;;;5113058;28;20039;-74
2022/07/01 10:28:45;;;;;;;1.63;1.08;;;23.70;99.00;;;;;;5113873;28;20572;-74
2022/07/01 10:31:16;;;;;;;1.83;0.73;;;24.00;99.30;;;;;;5074043;28;20113;-74
2022/07/01 10:33:48;;;;;;;2.08;0.93;;;23.80;97.60;;;;;;5073312;28;20051;-75
2022/07/01 10:36:15;;;;;;;2.72;1.00;;;24.00;98.60;;;;;;5073821;28;20031;-75
2022/07/01 10:41:32;;;;;;;2.92;1.00;;;24.10;97.70;;;;;;5073807;28;20510;-77
2022/07/01 10:44:02;;;;;;;3.15;0.90;;;24.30;98.20;;;;;;5084989;28;20472;-75
2022/07/01 10:47:05;;;;;;;4.50;0.75;;;24.00;98.30;;;;;;5093905;28;20068;-75
2022/07/01 10:49:37;;;;;;;3.40;0.90;;;24.10;99.20;;;;;;5074042;28;20060;-75
2022/07/01 10:52:08;;;;;;;4.83;1.00;;;24.00;97.20;;;;;;5092907;28;20081;-75
2022/07/01 10:54:36;;;;;;;4.07;0.77;;;24.10;99.40;;;;;;5093624;28;20036;-76
2022/07/01 10:57:20;;;;;;;2.90;0.60;;;24.30;97.60;;;;;;5094051;28;20028;-77
2022/07/01 10:59:48;;;;;;;3.53;0.90;;;24.40;98.00;;;;;;5093370;28;20032;-75
2022/07/01 11:02:40;;;;;;;2.67;0.80;;;24.70;97.30;;;;;;5093826;28;20020;-78
2022/07/01 11:05:14;;;;;;;3.45;0.80;;;24.70;97.60;;;;;;5091469;28;20044;-79
2022/07/01 11:07:44;;;;;;;4.95;1.00;;;24.70;97.30;;;;;;5093684;28;20060;-75
2022/07/01 11:10:11;;;;;;;4.80;0.70;;;24.80;97.30;;;;;;5093649;28;20032;-75
2022/07/01 11:12:37;;;;;;;1.80;0.70;;;24.60;97.30;;;;;;5092781;28;20503;-74
2022/07/01 11:15:07;;;;;;;4.68;1.25;;;24.40;97.50;;;;;;5092957;28;20035;-75
2022/07/01 11:17:34;;;;;;;3.72;1.20;;;24.10;98.40;;;;;;5093522;28;20016;-75
2022/07/01 11:20:04;;;;;;;4.90;1.02;;;24.30;96.60;;;;;;5097570;28;20054;-75
2022/07/01 11:22:31;;;;;;;3.60;1.02;;;24.10;97.10;;;;;;5090863;28;20503;-75
2022/07/01 11:25:08;;;;;;;3.88;1.13;;;24.00;98.20;;;;;;5093073;28;20044;-73
2022/07/01 11:27:35;;;;;;;4.32;0.93;;;24.30;99.30;;;;;;5093331;28;20031;-75
2022/07/01 11:30:11;;;;;;;17.23;6.90;;;24.50;96.30;;;;;;5093255;28;20031;-75
2022/07/01 11:32:43;;;;;;;4.72;2.00;;;24.60;97.90;;;;;;5093420;28;20103;-75
2022/07/01 11:40:54;;;;;;;5.63;0.90;;;25.30;94.70;;;;;;5093097;28;20077;-76
2022/07/01 11:43:39;;;;;;;2.67;1.38;;;25.50;95.10;;;;;;5092336;28;20485;-75
2022/07/01 11:46:07;;;;;;;2.35;0.85;;;25.40;95.80;;;;;;5091411;28;20048;-75
2022/07/01 11:48:39;;;;;;;2.20;0.68;;;25.40;95.30;;;;;;5107297;28;20016;-76
2022/07/01 11:51:09;;;;;;;1.43;0.70;;;25.30;94.90;;;;;;5111515;28;20482;-75
2022/07/01 11:53:35;;;;;;;3.35;1.10;;;25.30;94.80;;;;;;5092902;28;20029;-75
2022/07/01 11:56:01;;;;;;;1.95;0.88;;;25.10;94.20;;;;;;5092487;28;20039;-75
2022/07/01 11:58:50;;;;;;;1.83;0.85;;;25.10;95.40;;;;;;5094826;28;20032;-76
2022/07/01 12:01:31;;;;;;;3.63;0.82;;;24.80;96.00;;;;;;5096184;28;20105;-77
2022/07/01 12:03:59;;;;;;;3.03;0.80;;;24.80;96.90;;;;;;5097188;28;20031;-75
2022/07/01 12:06:26;;;;;;;3.63;0.80;;;24.90;94.80;;;;;;5097050;28;20032;-77
2022/07/01 12:08:53;;;;;;;3.90;0.90;;;24.90;95.40;;;;;;5097210;28;20052;-76
2022/07/01 12:11:21;;;;;;;4.45;0.80;;;24.60;95.00;;;;;;5096450;28;20095;-77
2022/07/01 12:13:48;;;;;;;4.10;0.85;;;24.50;95.60;;;;;;5096382;28;20028;-74
2022/07/01 12:16:15;;;;;;;2.65;0.90;;;24.70;94.70;;;;;;5096906;28;20023;-76
2022/07/01 12:18:51;;;;;;;2.13;0.65;;;24.60;95.40;;;;;;5087748;28;20495;-76
2022/07/01 12:21:17;;;;;;;2.08;0.95;;;24.60;95.20;;;;;;5094894;28;20101;-75
2022/07/01 12:24:01;;;;;;;1.23;0.70;;;24.90;94.00;;;;;;5095552;28;20465;-72
2022/07/01 12:26:27;;;;;;;1.88;0.90;;;25.00;94.20;;;;;;5088312;28;20061;-73
2022/07/01 12:28:54;;;;;;;2.60;1.00;;;25.20;94.00;;;;;;5086829;28;20461;-75
2022/07/01 12:31:20;;;;;;;3.28;1.25;;;25.40;94.40;;;;;;5084026;28;20116;-73
2022/07/01 12:33:50;;;;;;;2.33;1.05;;;25.50;93.90;;;;;;5085169;28;20102;-74
2022/07/01 12:36:16;;;;;;;5.07;1.42;;;25.20;94.20;;;;;;5084812;28;20392;-76
2022/07/01 12:38:42;;;;;;;3.38;1.30;;;25.40;94.00;;;;;;5083577;28;20020;-75
2022/07/01 12:41:33;;;;;;;2.47;1.30;;;25.30;93.30;;;;;;5087737;28;20032;-74
2022/07/01 12:43:59;;;;;;;3.50;1.35;;;25.40;95.20;;;;;;5089177;28;20024;-74
2022/07/01 12:46:32;;;;;;;2.45;1.30;;;25.30;93.60;;;;;;5088012;28;20024;-74
2022/07/01 12:48:58;;;;;;;;;;;25.30;95.00;;;;;;5088448;28;20020;-74
2022/07/01 12:51:31;;;;;;;3.55;1.85;;;25.30;93.70;;;;;;5082131;28;19904;-75
2022/07/01 12:53:57;;;;;;;2.30;1.70;;;25.40;94.00;;;;;;5091464;28;20047;-75
2022/07/01 12:56:25;;;;;;;4.25;1.73;;;25.60;94.10;;;;;;5086601;28;20058;-75
2022/07/01 12:58:53;;;;;;;2.40;1.38;;;25.80;94.70;;;;;;5088420;28;20020;-74
2022/07/01 13:01:20;;;;;;;2.83;1.25;;;25.70;93.80;;;;;;5088557;28;20035;-75
2022/07/01 13:03:46;;;;;;;2.55;1.42;;;25.60;93.80;;;;;;5090185;28;20030;-76
2022/07/01 13:06:11;;;;;;;3.17;1.40;;;25.30;94.10;;;;;;5085478;28;20044;-74